GOOY/DKR METAR and TAF weather

Enter ICAO airport designator
Station Type Date Time Source
GOOY METAR 2020/02/25 00:00 UTC NOAA

GOOY 250000Z 36012KT 5000 DU NSC 23/19 Q1010


Station Type Date Time Source
GOOY Decoded METAR 2020/02/25 00:00 UTC NOAA

Dakar / Yoff, Senegal (GOOY) 14-44N 017-30W 24M
Feb 24, 2020 - 07:00 PM EST / 2020.02.25 0000 UTC
Wind: from the N (360 degrees) at 14 MPH (12 KT):0
Visibility: 3 mile(s):0
Weather: widespread dust
Temperature: 73 F (23 C)
Dew Point: 66 F (19 C)
Relative Humidity: 78%
Pressure (altimeter): 29.83 in. Hg (1010 hPa)
ob: GOOY 250000Z 36012KT 5000 DU NSC 23/19 Q1010
cycle: 0

Station Type Date Time Source
GOOY TAF 2020/02/24 18:40 UTC NOAA

TAF GOOY 241730Z 2418/2524 36015KT 8000 NSC
BECMG 2421/2423 4500 DU

Example: see airport list